createdAt,value
2023-02-01T00:01:38.425Z,1.45
2023-02-01T00:11:46.856Z,1.42
2023-02-01T00:21:56.712Z,1.55
2023-02-01T00:32:05.196Z,1.30
2023-02-01T00:42:12.002Z,1.30
2023-02-01T00:52:20.436Z,1.35
2023-02-01T01:02:30.996Z,1.10
2023-02-01T01:12:39.851Z,1.20
2023-02-01T01:22:46.797Z,1.50
2023-02-01T01:32:56.415Z,1.45
2023-02-01T01:43:03.281Z,1.60
2023-02-01T01:53:15.681Z,1.90
2023-02-01T02:03:25.239Z,1.98
2023-02-01T02:13:40.673Z,1.70
2023-02-01T02:24:14.651Z,2.50
2023-02-01T02:34:29.026Z,2.30
2023-02-01T02:45:44.464Z,1.60
2023-02-01T02:56:45.039Z,1.40
2023-02-01T03:06:59.443Z,1.27
2023-02-01T03:17:19.547Z,1.20
2023-02-01T03:27:35.809Z,1.33
2023-02-01T03:37:54.158Z,1.10
2023-02-01T03:48:12.188Z,1.10
2023-02-01T03:58:30.949Z,1.20
2023-02-01T04:08:42.348Z,1.00
2023-02-01T04:19:00.684Z,1.00
2023-02-01T04:29:12.406Z,1.10
2023-02-01T04:39:30.154Z,1.08
2023-02-01T04:49:43.904Z,1.00
2023-02-01T05:00:01.348Z,1.15
2023-02-01T05:10:09.239Z,1.05
2023-02-01T05:20:18.514Z,0.80
2023-02-01T05:30:26.711Z,0.80
2023-02-01T05:40:35.153Z,0.60
2023-02-01T05:50:52.390Z,0.50
2023-02-01T06:01:02.850Z,0.50
2023-02-01T06:11:17.371Z,0.70
2023-02-01T06:21:35.326Z,0.77
2023-02-01T06:31:42.432Z,0.70
2023-02-01T06:41:52.989Z,0.60
2023-02-01T06:52:02.189Z,0.90
2023-02-01T07:02:12.610Z,0.77
2023-02-01T07:12:20.377Z,0.90
2023-02-01T07:22:32.151Z,0.90
2023-02-01T07:32:39.105Z,1.00
2023-02-01T07:42:47.542Z,0.80
2023-02-01T07:52:59.849Z,0.93
2023-02-01T08:03:19.812Z,0.80
2023-02-01T08:13:32.675Z,0.77
2023-02-01T08:23:55.374Z,0.70
2023-02-01T08:34:07.115Z,0.65
2023-02-01T08:44:23.794Z,0.73
2023-02-01T08:54:37.996Z,0.70
2023-02-01T09:04:55.046Z,0.60
2023-02-01T09:15:09.391Z,0.70
2023-02-01T09:25:27.826Z,0.70
2023-02-01T09:35:40.397Z,0.65
2023-02-01T09:46:06.481Z,0.75
2023-02-01T09:56:33.331Z,0.60
2023-02-01T10:07:01.653Z,0.52
2023-02-01T10:17:23.721Z,0.50
2023-02-01T10:27:44.087Z,0.50
2023-02-01T10:37:54.336Z,0.40
2023-02-01T10:48:31.503Z,0.40
2023-02-01T10:58:50.872Z,0.40
2023-02-01T11:09:20.952Z,0.50
2023-02-01T11:19:31.201Z,0.57
2023-02-01T11:29:51.354Z,0.47
2023-02-01T11:50:42.583Z,0.43
2023-02-01T12:01:12.250Z,0.52
2023-02-01T12:11:47.083Z,0.40
2023-02-01T12:22:22.912Z,0.30
2023-02-01T12:32:56.424Z,0.30
2023-02-01T12:43:19.446Z,0.30
2023-02-01T12:53:55.335Z,0.30
2023-02-01T13:04:22.681Z,0.38
2023-02-01T13:14:46.112Z,0.45
2023-02-01T13:25:03.804Z,0.30
2023-02-01T13:36:01.112Z,0.20
2023-02-01T13:46:32.495Z,0.30
2023-02-01T13:57:34.222Z,0.20
2023-02-01T14:08:17.551Z,0.28
2023-02-01T14:19:03.941Z,0.50
2023-02-01T14:29:38.326Z,0.20
2023-02-01T14:40:02.473Z,0.35
2023-02-01T14:50:46.465Z,0.30
2023-02-01T15:01:06.735Z,0.20
2023-02-01T15:11:22.475Z,0.30
2023-02-01T15:21:35.943Z,0.60
2023-02-01T15:31:44.907Z,0.60
2023-02-01T15:42:03.173Z,0.73
2023-02-01T15:52:30.491Z,0.60
2023-02-01T16:02:49.187Z,1.00
2023-02-01T16:13:00.509Z,0.70
2023-02-01T16:23:12.294Z,1.27
2023-02-01T16:33:23.779Z,1.17
2023-02-01T16:43:32.683Z,1.00
2023-02-01T16:53:53.471Z,0.68
2023-02-01T17:04:04.171Z,0.60
2023-02-01T17:14:22.932Z,0.60
2023-02-01T17:24:47.638Z,1.17
2023-02-01T17:34:59.276Z,1.17
2023-02-01T17:45:23.681Z,0.93
2023-02-01T17:55:30.979Z,0.80
2023-02-01T18:06:01.252Z,1.00
2023-02-01T18:16:08.833Z,0.82
2023-02-01T18:26:26.129Z,0.90
2023-02-01T18:36:34.088Z,1.00
2023-02-01T18:46:44.015Z,0.80
2023-02-01T18:56:51.639Z,0.63
2023-02-01T19:07:03.564Z,0.80
2023-02-01T19:17:13.529Z,0.80
2023-02-01T19:27:22.401Z,0.80
2023-02-01T19:37:29.167Z,1.10
2023-02-01T19:47:38.126Z,0.90
2023-02-01T19:57:45.329Z,1.00
2023-02-01T20:08:17.248Z,1.25
2023-02-01T20:18:36.749Z,1.20
2023-02-01T20:28:52.715Z,1.10
2023-02-01T20:39:01.584Z,1.20
2023-02-01T20:49:10.595Z,1.20
2023-02-01T20:59:18.018Z,0.70
2023-02-01T21:09:26.464Z,1.20
2023-02-01T21:19:43.623Z,1.20
2023-02-01T21:29:51.965Z,0.70
2023-02-01T21:39:58.730Z,1.10
2023-02-01T21:50:08.568Z,0.90
2023-02-01T22:00:16.651Z,1.00
2023-02-01T22:10:25.138Z,0.90
2023-02-01T22:20:31.835Z,1.00
2023-02-01T22:30:40.277Z,0.90
2023-02-01T22:40:47.221Z,0.93
2023-02-01T22:51:00.417Z,1.00
2023-02-01T23:01:10.859Z,1.08
2023-02-01T23:11:19.194Z,0.80
2023-02-01T23:21:26.586Z,0.90
2023-02-01T23:31:37.310Z,0.80
2023-02-01T23:41:44.061Z,0.80
2023-02-01T23:51:54.155Z,0.90
